Providence, Kentucky
Current Conditions -  °F | °C
As of 2:35 AM on Sunday 26 Oct 2014 (Local Time) from K5M9 Reporting Station
Haze Haze  
Wind Chill: 55°   Ceiling: Unl
Heat Index: 55°   Visibility: 4mi
Dew Point: 55°   Wind: 3mph
Humidity: 100%   Direction: 270°W
Pressure: 30.01"   Gusts: NA
Location:  37.4°N, 87.76°W
Report Text: K5M9 260735Z AUTO 27003KT 4SM BR CLR 13/13 A3001 RMK AO2 T01290129
Loading
Personal Weather Stations






























Interactive Weather Map
Tropical Storm Tracking
New forecast layout! Learn more

10-Day Weather Forecast

Advertisements
Track Severe Weather on mobile